Cincinnati Municipal Airport Lunken Field
KLUK : now visible

Airfield :











YOU CAN JOIN US ON...

 
LOGIN :

Register | Disclaimer

   EN    FR    IT 

 









Legend :    VFR   Marginal VFR   IFR   Intensive IFR   Very Intensive IFR
Visi :
Ceiling :
>= 8 km
>= 3000ft
5 to 8 km
1000 to 3000 ft
1500m to 5 km
500 to 1000 ft
800 to 1500m
200 to 500 ft
< 800m
< 200 ft
Symbols :   Thunderstorms  Fog  Heavy snow  Heavy precipitations  Wind > 20 kt







- Airport Elevation : 483 ft
- IATA code : LUK


KLUK - Cincinnati Municipal Lunken Field

CURRENT METAR :
  • 191353Z 20005KT 8SM FEW019 OVC024 28/25 A3001 RMK AO2 SLP159 T02780250

EXPIRED METARs :
  • 191253Z 20007KT 8SM BKN015 OVC028 26/24 A3000 RMK AO2 SLP155 T02610244
  • 191153Z 19006KT 8SM OVC019 25/24 A2999 RMK AO2 SLP150 70068 T02500239 10250 20222 51007

TAF KLUK
Valid from the 19 at 14:00 until the 20 at 12:00 UTC


191359Z 1914/2012 20006KT P6SM FEW015 OVC025
FM191600 22010KT P6SM SCT050
FM200100 21006KT P6SM SKC
TEMPO 2009/2012 4SM BR
KZID FIR / North America



MET'MAP, your aeronautical weather chart ! - Copyright ORBIFLY December 2007 - Disclaimer

ORBIFLY MET'MAP TEAM :

Programming & Development : Alexandra Zaïnal
Concept & Development : Baudouin d'Aumeries
Co-Development & Prog : Marc-Olivier Méhu
Technical & hardware support : Manuel Goepfert

Contact : metmap@orbifly.com




SOURCES & CREDITS :

   NOAA       Earth
Advisory